Terminal Aerodrome Forecast
Issued by NWS Cleveland, OH

Home | Current Version | Previous Version | Graphics & Text | Print | Product List | Glossary On
Versions: 1 2 3 4 5 6 7 8 9 10 11 12 13
000
FTUS41 KCLE 020657 AAA
TAFTOL
TAF AMD
KTOL 020657Z 0207/0306 02005KT P6SM SCT012 BKN050
      TEMPO 0209/0213 5SM BR BKN012
     FM021300 05008KT P6SM SCT012 BKN035
     FM021500 06008KT P6SM SCT045
     FM030100 05003KT P6SM SKC=

USA.gov is the U.S. government's official web portal to all federal, state and local government web resources and services.